Island Explorer — WDG7285 — position and weather

sailwx.info

Track history (hours):
 
Tides and Currents Weather Stations Pressure Air Temp Water Temp Dewpoint Dewpoint Depression Visibility Wind Speed Wind Dir Waves Ship Positions

Island Explorer

Owner: Island Packers, Inc., Ventura, CA. More information available from US FCC via Universal Licensing System and Coast Guard Vessel Documentation Center.

Last reported at 2018-May-22 19:00 UTC. Time now 2018-May-22 19:06 UTC.
Position N 34°04' W 119°23'.

Length 22 m.

Type: Passenger vessel. MMSI: 367565750.

Date/timePositionNaut miles runAvg speedWind from/ knotsBaromVisibWave heightAir tempDewpointWater temp
2018-May-22 19:00N 34°04' W 119°23'3 5.2
2018-May-22 18:30N 34°01' W 119°22'1 1.7
2018-May-22 18:00N 34°01' W 119°21'2 3.7
2018-May-22 17:30N 34°02' W 119°20'917.4
2018-May-22 16:58N 34°12' W 119°18'3 7.3
2018-May-22 16:30N 34°15' W 119°16'0 0.0
2018-May-22 15:58N 34°15' W 119°16'0 0.0
2018-May-22 15:27N 34°15' W 119°16'0 0.0
2018-May-22 15:00N 34°15' W 119°16'0 0.0
2018-May-22 14:31N 34°15' W 119°16'0 0.0
2018-May-22 14:00N 34°15' W 119°16'0 0.0
2018-May-22 13:27N 34°15' W 119°16'0 0.0
2018-May-22 13:00N 34°15' W 119°16'0 0.0
2018-May-22 12:30N 34°15' W 119°16'0 0.0
2018-May-22 11:59N 34°15' W 119°16'0 0.0
2018-May-22 11:30N 34°15' W 119°16'0 0.0
2018-May-22 11:00N 34°15' W 119°16'0 0.0
2018-May-22 10:30N 34°15' W 119°16'0 0.0
2018-May-22 09:58N 34°15' W 119°16'0 0.0
2018-May-22 09:26N 34°15' W 119°16'0 0.0
2018-May-22 08:56N 34°15' W 119°16'0 0.0
2018-May-22 08:29N 34°15' W 119°16'0 0.0
2018-May-22 08:00N 34°15' W 119°16'0 0.0
2018-May-22 07:30N 34°15' W 119°16'0 0.0
2018-May-22 06:59N 34°15' W 119°16'0 0.0
2018-May-22 06:30N 34°15' W 119°16'0 0.0
2018-May-22 05:56N 34°15' W 119°16'0 0.0
2018-May-22 05:28N 34°15' W 119°16'0 0.0
2018-May-22 05:01N 34°15' W 119°16'0 0.0
2018-May-22 04:27N 34°15' W 119°16'0 0.0
2018-May-22 04:00N 34°15' W 119°16'0 0.0
2018-May-22 03:30N 34°15' W 119°16'0 0.0
2018-May-22 02:55N 34°15' W 119°16'0 0.0
2018-May-22 02:30N 34°15' W 119°16'0 0.0
2018-May-22 01:55N 34°15' W 119°16'0 0.0
2018-May-22 01:29N 34°15' W 119°16'0 0.0
2018-May-22 00:57N 34°15' W 119°16'0 0.0
2018-May-22 00:29N 34°15' W 119°16'0 0.0
2018-May-21 23:59N 34°15' W 119°16'815.8
2018-May-21 23:30N 34°10' W 119°23'1020.6
2018-May-21 23:00N 34°03' W 119°33'1 1.3
2018-May-21 22:30N 34°03' W 119°33'713.3
2018-May-21 22:00N 34°01' W 119°41'0 0.0
2018-May-21 21:30N 34°01' W 119°41'4 6.9
2018-May-21 20:59N 34°03' W 119°37'3 4.9
2018-May-21 20:19N 34°03' W 119°33'619.2
2018-May-21 20:00N 34°07' W 119°27'815.6
2018-May-21 19:29N 34°12' W 119°20'4 0.3
2018-May-21 04:21N 34°15' W 119°16'0 0.0
2018-May-21 02:58N 34°15' W 119°16'0 0.0
2018-May-21 02:21N 34°15' W 119°16'0 0.0
2018-May-21 01:53N 34°15' W 119°16'0 0.0
2018-May-21 01:27N 34°15' W 119°16'0 0.0
2018-May-21 00:59N 34°15' W 119°16'1 1.7
2018-May-21 00:30N 34°14' W 119°17'918.4
2018-May-21 00:00N 34°09' W 119°26'917.6
2018-May-20 23:30N 34°03' W 119°33'0 0.1
2018-May-20 22:52N 34°03' W 119°33'513.7
2018-May-20 22:30N 34°02' W 119°39'2 3.5
2018-May-20 22:00N 34°01' W 119°41'0 0.0
2018-May-20 21:30N 34°01' W 119°41'0 0.0
2018-May-20 21:00N 34°01' W 119°41'0 0.0
2018-May-20 20:30N 34°01' W 119°41'0 0.0
2018-May-20 20:00N 34°01' W 119°41'0 0.0
2018-May-20 19:30N 34°01' W 119°41'0 0.0
2018-May-20 19:00N 34°01' W 119°41'0 0.1
2018-May-20 18:30N 34°01' W 119°41'4 7.6
2018-May-20 18:00N 34°03' W 119°37'3 4.7
2018-May-20 17:24N 34°03' W 119°33'615.5
2018-May-20 17:00N 34°07' W 119°27'917.6
2018-May-20 16:30N 34°12' W 119°19'4 0.6
2018-May-20 10:02N 34°15' W 119°16'0 0.0
2018-May-20 09:54N 34°15' W 119°16'0 0.0
2018-May-20 09:21N 34°15' W 119°16'0 0.0
2018-May-20 08:53N 34°15' W 119°16'0 0.0
2018-May-20 07:36N 34°15' W 119°16'0 0.0
2018-May-20 07:21N 34°15' W 119°16'0 0.0
2018-May-20 06:59N 34°15' W 119°16'0 0.0
2018-May-20 02:07N 34°15' W 119°16'0 0.1
2018-May-20 02:00N 34°15' W 119°16'0 0.0
2018-May-20 00:56N 34°15' W 119°16'0 0.0
2018-May-20 00:15N 34°15' W 119°16'2 8.6
2018-May-19 23:59N 34°14' W 119°18'817.3
2018-May-19 23:30N 34°08' W 119°26'816.1
2018-May-19 23:00N 34°03' W 119°33'0 0.1
2018-May-19 22:07N 34°03' W 119°33'0 0.4
2018-May-19 22:00N 34°03' W 119°33'0 0.0
2018-May-19 21:29N 34°03' W 119°33'0 0.0
2018-May-19 21:00N 34°03' W 119°33'0 0.1
2018-May-19 20:23N 34°03' W 119°33'617.1
2018-May-19 20:00N 34°07' W 119°27'1018.4
2018-May-19 19:29N 34°13' W 119°18'3 2.4
2018-May-19 18:25N 34°15' W 119°16'0 0.2
2018-May-19 18:00N 34°15' W 119°16'816.3
2018-May-19 17:30N 34°10' W 119°24'917.8
2018-May-19 17:00N 34°04' W 119°32'2 2.3
2018-May-19 16:21N 34°03' W 119°33'615.9
2018-May-19 15:58N 34°07' W 119°28'816.6
2018-May-19 15:30N 34°12' W 119°21'5 9.9
2018-May-19 15:00N 34°15' W 119°16'0 0.0
2018-May-19 14:29N 34°15' W 119°16'0 0.0
2018-May-19 13:59N 34°15' W 119°16'0 0.0
2018-May-19 13:29N 34°15' W 119°16'0 0.0
2018-May-19 12:59N 34°15' W 119°16'0 0.0
2018-May-19 12:26N 34°15' W 119°16'0 0.0
2018-May-19 11:55N 34°15' W 119°16'0 0.0
2018-May-19 11:29N 34°15' W 119°16'0 0.0
2018-May-19 10:54N 34°15' W 119°16'0 0.0
2018-May-19 10:17N 34°15' W 119°16'0 0.0
2018-May-19 09:58N 34°15' W 119°16'0 0.0
2018-May-19 09:29N 34°15' W 119°16'0 0.0
2018-May-19 09:00N 34°15' W 119°16'0 0.0
2018-May-19 08:17N 34°15' W 119°16'0 0.0
2018-May-19 07:58N 34°15' W 119°16'0 0.0
2018-May-19 07:28N 34°15' W 119°16'0 0.0
2018-May-19 07:00N 34°15' W 119°16'0 0.0
2018-May-19 06:28N 34°15' W 119°16'0 0.0
2018-May-19 05:59N 34°15' W 119°16'0 0.0
2018-May-19 05:30N 34°15' W 119°16'0 0.0
2018-May-19 04:55N 34°15' W 119°16'0 0.0
2018-May-19 04:28N 34°15' W 119°16'0 0.0
2018-May-19 04:00N 34°15' W 119°16'0 0.0
2018-May-19 03:30N 34°15' W 119°16'0 0.0
2018-May-19 03:00N 34°15' W 119°16'0 0.0
2018-May-19 02:30N 34°15' W 119°16'0 0.0
2018-May-19 01:59N 34°15' W 119°16'0 0.0
2018-May-19 01:30N 34°15' W 119°16'0 0.0
2018-May-19 01:00N 34°15' W 119°16'0 0.7
2018-May-19 00:30N 34°15' W 119°16'918.9
2018-May-19 00:00N 34°09' W 119°25'816.2
2018-May-18 23:30N 34°03' W 119°33'1 1.4
2018-May-18 23:00N 34°03' W 119°34'713.2
2018-May-18 22:30N 34°01' W 119°41'714.7
2018-May-18 22:00N 34°04' W 119°49'612.7
2018-May-18 21:30N 34°04' W 119°57'610.5
2018-May-18 20:54N 34°00' W 120°03'0 0.1
2018-May-18 20:30N 34°00' W 120°03'0 0.0
2018-May-18 20:00N 34°00' W 120°03'0 0.0
2018-May-18 19:28N 34°00' W 120°03'0 0.0
2018-May-18 18:59N 34°00' W 120°03'0 0.0
2018-May-18 18:17N 34°01' W 120°03'618.6
2018-May-18 17:58N 33°58' W 119°56'2117.7
2018-May-18 16:46N 34°02' W 119°31'2 6.6
2018-May-18 16:25N 34°03' W 119°33'716.9
2018-May-18 15:59N 34°07' W 119°26'916.3
2018-May-18 15:26N 34°13' W 119°18'2 3.0
2018-May-18 14:40N 34°15' W 119°16'0 0.1
2018-May-18 14:30N 34°15' W 119°16'0 0.0
2018-May-18 13:58N 34°15' W 119°16'0 0.0
2018-May-18 13:27N 34°15' W 119°16'0 0.0
2018-May-18 12:58N 34°15' W 119°16'0 0.0
2018-May-18 12:21N 34°15' W 119°16'0 0.0
2018-May-18 11:56N 34°15' W 119°16'0 0.0
2018-May-18 11:28N 34°15' W 119°16'0 0.0
2018-May-18 11:00N 34°15' W 119°16'0 0.0
2018-May-18 10:30N 34°15' W 119°16'0 0.0
2018-May-18 09:51N 34°15' W 119°16'0 0.0
2018-May-18 09:30N 34°15' W 119°16'0 0.0
2018-May-18 09:00N 34°15' W 119°16'0 0.0
2018-May-18 08:30N 34°15' W 119°16'0 0.0
2018-May-18 08:00N 34°15' W 119°16'0 0.0
2018-May-18 07:29N 34°15' W 119°16'0 0.0
2018-May-18 07:00N 34°15' W 119°16'0 0.0
2018-May-18 06:29N 34°15' W 119°16'0 0.0
2018-May-18 05:59N 34°15' W 119°16'0 0.0
2018-May-18 05:30N 34°15' W 119°16'0 0.0
2018-May-18 05:00N 34°15' W 119°16'0 0.0
2018-May-18 04:28N 34°15' W 119°16'0 0.0
2018-May-18 04:01N 34°15' W 119°16'0 0.0
2018-May-18 03:30N 34°15' W 119°16'0 0.0
2018-May-18 03:00N 34°15' W 119°16'0 0.0
2018-May-18 02:30N 34°15' W 119°16'0 0.0
2018-May-18 02:00N 34°15' W 119°16'0 0.0
2018-May-18 01:31N 34°15' W 119°16'0 0.0
2018-May-18 01:00N 34°15' W 119°16'0 0.0
2018-May-18 00:30N 34°15' W 119°16'0 0.0
2018-May-18 00:00N 34°15' W 119°16'2 4.1
2018-May-17 23:30N 34°13' W 119°18'917.0
2018-May-17 23:00N 34°05' W 119°18'4 7.9
2018-May-17 22:26N 34°01' W 119°21'0 0.6
2018-May-17 21:57N 34°01' W 119°22'1 3.1
2018-May-17 21:29N 34°01' W 119°20'1 1.2
2018-May-17 21:00N 34°02' W 119°21'0 0.9
2018-May-17 20:30N 34°02' W 119°21'0 0.5
2018-May-17 19:58N 34°02' W 119°22'0 0.4
2018-May-17 19:30N 34°02' W 119°22'0 0.3
2018-May-17 19:00N 34°01' W 119°22'0 0.3
2018-May-17 18:30N 34°01' W 119°22'0 0.3
2018-May-17 18:00N 34°01' W 119°22'3 5.8
2018-May-17 17:30N 34°03' W 119°24'1019.1
2018-May-17 17:00N 34°12' W 119°18'4 3.6
2018-May-17 15:56N 34°15' W 119°16'0 0.0
2018-May-17 06:03N 34°15' W 119°16'0 0.0
2018-May-17 05:56N 34°15' W 119°16'0 0.0
2018-May-17 05:23N 34°15' W 119°16'0 0.0
2018-May-17 04:57N 34°15' W 119°16'0 0.0
2018-May-17 04:29N 34°15' W 119°16'0 0.0
2018-May-17 04:00N 34°15' W 119°16'0 0.0
2018-May-17 03:26N 34°15' W 119°16'0 0.0
2018-May-17 02:57N 34°15' W 119°16'0 0.0
2018-May-17 02:29N 34°15' W 119°16'0 0.0
2018-May-17 01:57N 34°15' W 119°16'0 0.0
2018-May-17 01:28N 34°15' W 119°16'0 0.0
2018-May-17 00:50N 34°15' W 119°16'0 0.0
2018-May-17 00:25N 34°15' W 119°16'1 3.3
2018-May-17 00:00N 34°14' W 119°17'1019.2
2018-May-16 23:30N 34°08' W 119°26'815.1
2018-May-16 23:00N 34°03' W 119°33'3 5.9
2018-May-16 22:30N 34°04' W 119°37'815.2
2018-May-16 22:00N 34°04' W 119°46'613.0
2018-May-16 21:31N 34°05' W 119°54'8 4.5
2018-May-16 19:37N 34°01' W 120°03'0 1.0
2018-May-16 19:21N 34°01' W 120°03'2617.9
2018-May-16 17:53N 34°02' W 119°31'2 5.0
2018-May-16 17:29N 34°03' W 119°33'1019.6
2018-May-16 16:58N 34°10' W 119°24'816.7
2018-May-16 16:29N 34°15' W 119°16'0 0.7
2018-May-16 15:59N 34°15' W 119°16'0 0.0
2018-May-16 15:30N 34°15' W 119°16'0 0.0
2018-May-16 14:51N 34°15' W 119°16'0 0.0
2018-May-16 14:30N 34°15' W 119°16'0 0.0
2018-May-16 13:54N 34°15' W 119°16'0 0.0
2018-May-16 13:22N 34°15' W 119°16'0 0.0
2018-May-16 12:57N 34°15' W 119°16'0 0.0
2018-May-16 12:29N 34°15' W 119°16'0 0.0
2018-May-16 11:59N 34°15' W 119°16'0 0.0
2018-May-16 11:30N 34°15' W 119°16'0 0.0
2018-May-16 11:00N 34°15' W 119°16'0 0.0
2018-May-16 10:30N 34°15' W 119°16'0 0.0
2018-May-16 09:59N 34°15' W 119°16'0 0.0
2018-May-16 09:30N 34°15' W 119°16'0 0.0
2018-May-16 08:59N 34°15' W 119°16'0 0.0
2018-May-16 08:29N 34°15' W 119°16'0 0.0
2018-May-16 08:00N 34°15' W 119°16'0 0.0
2018-May-16 07:30N 34°15' W 119°16'0 0.0
2018-May-16 07:00N 34°15' W 119°16'0 0.0
2018-May-16 06:30N 34°15' W 119°16'0 0.0
2018-May-16 06:00N 34°15' W 119°16'0 0.0
2018-May-16 05:30N 34°15' W 119°16'0 0.0
2018-May-16 05:00N 34°15' W 119°16'0 0.0
2018-May-16 04:30N 34°15' W 119°16'0 0.0
2018-May-16 03:58N 34°15' W 119°16'0 0.0
2018-May-16 03:30N 34°15' W 119°16'0 0.0
2018-May-16 03:00N 34°15' W 119°16'0 0.0
2018-May-16 02:30N 34°15' W 119°16'0 0.0
2018-May-16 02:00N 34°15' W 119°16'0 0.0
2018-May-16 01:30N 34°15' W 119°16'0 0.0
2018-May-16 01:00N 34°15' W 119°16'0 0.0
2018-May-16 00:30N 34°15' W 119°16'0 0.0
2018-May-16 00:00N 34°15' W 119°16'3 5.5
2018-May-15 23:29N 34°13' W 119°19'918.8
2018-May-15 22:59N 34°07' W 119°27'6 9.2
2018-May-15 22:18N 34°03' W 119°33'413.0
2018-May-15 21:59N 34°02' W 119°38'3 5.7
2018-May-15 21:30N 34°01' W 119°41'0 0.1
2018-May-15 21:00N 34°01' W 119°41'1 2.5
2018-May-15 20:30N 34°02' W 119°41'1 2.5
2018-May-15 20:00N 34°01' W 119°41'0 0.0
2018-May-15 19:31N 34°01' W 119°41'0 0.0
2018-May-15 19:00N 34°01' W 119°41'0 0.0
2018-May-15 18:29N 34°01' W 119°41'2 4.5
2018-May-15 18:00N 34°02' W 119°39'5 8.1
2018-May-15 17:27N 34°03' W 119°33'817.8
2018-May-15 16:58N 34°08' W 119°25'714.2
2018-May-15 16:30N 34°13' W 119°19'4 6.9
2018-May-15 15:59N 34°15' W 119°16'0 0.0
2018-May-15 15:30N 34°15' W 119°16'0 0.0
2018-May-15 15:00N 34°15' W 119°16'0 0.0
2018-May-15 14:31N 34°15' W 119°16'0 0.0
2018-May-15 13:59N 34°15' W 119°16'0 0.0
2018-May-15 13:30N 34°15' W 119°16'0 0.0
2018-May-15 13:00N 34°15' W 119°16'0 0.0
2018-May-15 12:31N 34°15' W 119°16'0 0.0
2018-May-15 12:00N 34°15' W 119°16'0 0.0
2018-May-15 11:31N 34°15' W 119°16'0 0.0
2018-May-15 11:00N 34°15' W 119°16'0 0.0
2018-May-15 10:30N 34°15' W 119°16'0 0.0
2018-May-15 09:59N 34°15' W 119°16'0 0.0
2018-May-15 09:30N 34°15' W 119°16'0 0.0
2018-May-15 08:57N 34°15' W 119°16'0 0.0
2018-May-15 08:24N 34°15' W 119°16'0 0.0
2018-May-15 07:59N 34°15' W 119°16'0 0.0
2018-May-15 07:28N 34°15' W 119°16'0 0.0
2018-May-15 07:00N 34°15' W 119°16'0 0.0
2018-May-15 06:31N 34°15' W 119°16'0 0.0
2018-May-15 06:01N 34°15' W 119°16'0 0.0
2018-May-15 05:29N 34°15' W 119°16'0 0.0
2018-May-15 04:59N 34°15' W 119°16'0 0.0
2018-May-15 04:30N 34°15' W 119°16'0 0.0
2018-May-15 04:00N 34°15' W 119°16'0 0.0
2018-May-15 03:28N 34°15' W 119°16'0 0.0
2018-May-15 02:55N 34°15' W 119°16'0 0.0
2018-May-15 02:30N 34°15' W 119°16'0 0.0
2018-May-15 02:00N 34°15' W 119°16'0 0.0
2018-May-15 01:31N 34°15' W 119°16'0 0.0
2018-May-15 01:00N 34°15' W 119°16'0 0.0
2018-May-15 00:29N 34°15' W 119°16'510.9
2018-May-15 00:00N 34°11' W 119°21'918.0
2018-May-14 23:30N 34°06' W 119°29'4 8.7
2018-May-14 23:00N 34°03' W 119°33'0 0.0
2018-May-14 22:30N 34°03' W 119°33'0 0.1
2018-May-14 22:00N 34°03' W 119°33'0 0.0
2018-May-14 21:30N 34°03' W 119°33'0 0.0
2018-May-14 21:00N 34°03' W 119°33'0 0.0
2018-May-14 20:30N 34°03' W 119°33'0 0.0
2018-May-14 20:00N 34°03' W 119°33'0 0.0
2018-May-14 19:30N 34°03' W 119°33'0 0.0
2018-May-14 19:00N 34°03' W 119°33'0 0.0
2018-May-14 18:30N 34°03' W 119°33'0 0.0
2018-May-14 17:58N 34°03' W 119°33'0 0.1
2018-May-14 17:25N 34°03' W 119°33'816.6
2018-May-14 16:57N 34°08' W 119°26'818.1
2018-May-14 16:30N 34°13' W 119°19'3 5.5
2018-May-14 16:00N 34°15' W 119°16'0 0.0
2018-May-14 15:30N 34°15' W 119°16'0 0.0
2018-May-14 15:00N 34°15' W 119°16'0 0.0
2018-May-14 14:30N 34°15' W 119°16'0 0.0
2018-May-14 14:00N 34°15' W 119°16'0 0.0
2018-May-14 13:30N 34°15' W 119°16'0 0.0
2018-May-14 12:59N 34°15' W 119°16'0 0.0
2018-May-14 12:25N 34°15' W 119°16'0 0.0
2018-May-14 12:00N 34°15' W 119°16'0 0.0
2018-May-14 11:27N 34°15' W 119°16'0 0.0
2018-May-14 11:00N 34°15' W 119°16'0 0.0
2018-May-14 10:30N 34°15' W 119°16'0 0.0
2018-May-14 10:00N 34°15' W 119°16'0 0.0
2018-May-14 09:29N 34°15' W 119°16'0 0.0
2018-May-14 09:00N 34°15' W 119°16'0 0.0
2018-May-14 08:30N 34°15' W 119°16'0 0.0
2018-May-14 08:00N 34°15' W 119°16'0 0.0
2018-May-14 07:30N 34°15' W 119°16'0 0.0
2018-May-14 06:59N 34°15' W 119°16'0 0.0
2018-May-14 06:29N 34°15' W 119°16'0 0.0
2018-May-14 05:58N 34°15' W 119°16'0 0.0
2018-May-14 05:27N 34°15' W 119°16'0 0.0
2018-May-14 04:58N 34°15' W 119°16'0 0.0
2018-May-14 04:30N 34°15' W 119°16'0 0.0
2018-May-14 03:59N 34°15' W 119°16'0 0.0
2018-May-14 03:30N 34°15' W 119°16'0 0.0
2018-May-14 02:59N 34°15' W 119°16'0 0.0
2018-May-14 02:30N 34°15' W 119°16'0 0.0
2018-May-14 02:00N 34°15' W 119°16'0 0.0
2018-May-14 01:28N 34°15' W 119°16'0 0.0
2018-May-14 01:00N 34°15' W 119°16'712.3
2018-May-14 00:28N 34°11' W 119°22'919.1
2018-May-14 00:00N 34°05' W 119°31'3 3.4
2018-May-13 23:06N 34°03' W 119°33'0 0.1
2018-May-13 23:00N 34°03' W 119°33'0 0.0
2018-May-13 22:30N 34°03' W 119°33'510.8
2018-May-13 22:00N 34°02' W 119°40'1 2.6
2018-May-13 21:30N 34°01' W 119°41'0 0.0
2018-May-13 21:00N 34°01' W 119°41'0 0.0
2018-May-13 20:30N 34°01' W 119°41'0 0.0
2018-May-13 20:00N 34°01' W 119°41'0 0.0
2018-May-13 19:30N 34°01' W 119°41'0 0.0
2018-May-13 19:00N 34°01' W 119°41'0 0.0
2018-May-13 18:30N 34°01' W 119°41'2 3.7
2018-May-13 18:00N 34°02' W 119°39'5 9.5
2018-May-13 17:29N 34°03' W 119°33'713.9
2018-May-13 17:00N 34°07' W 119°27'918.2
2018-May-13 16:30N 34°13' W 119°19'3 3.3
2018-May-13 15:41N 34°15' W 119°16'0 0.0
2018-May-13 15:30N 34°15' W 119°16'0 0.0
2018-May-13 14:59N 34°15' W 119°16'0 0.0
2018-May-13 14:30N 34°15' W 119°16'0 0.0
2018-May-13 13:57N 34°15' W 119°16'0 0.0
2018-May-13 13:27N 34°15' W 119°16'0 0.0
2018-May-13 12:58N 34°15' W 119°16'0 0.0
2018-May-13 12:28N 34°15' W 119°16'0 0.0
2018-May-13 12:00N 34°15' W 119°16'0 0.0
2018-May-13 11:30N 34°15' W 119°16'0 0.0
2018-May-13 10:59N 34°15' W 119°16'0 0.0
2018-May-13 10:30N 34°15' W 119°16'0 0.0
2018-May-13 10:00N 34°15' W 119°16'0 0.0
2018-May-13 09:30N 34°15' W 119°16'0 0.0
2018-May-13 08:57N 34°15' W 119°16'0 0.0
2018-May-13 08:28N 34°15' W 119°16'0 0.0
2018-May-13 07:59N 34°15' W 119°16'0 0.0
2018-May-13 07:30N 34°15' W 119°16'0 0.0
2018-May-13 06:53N 34°15' W 119°16'0 0.0
2018-May-13 06:30N 34°15' W 119°16'0 0.0
2018-May-13 05:58N 34°15' W 119°16'0 0.0
2018-May-13 05:30N 34°15' W 119°16'0 0.0
2018-May-13 04:59N 34°15' W 119°16'0 0.0
2018-May-13 04:30N 34°15' W 119°16'0 0.0
2018-May-13 04:00N 34°15' W 119°16'0 0.0
2018-May-13 03:30N 34°15' W 119°16'0 0.0
2018-May-13 02:59N 34°15' W 119°16'0 0.0
2018-May-13 02:30N 34°15' W 119°16'0 0.0
2018-May-13 02:00N 34°15' W 119°16'0 0.0
2018-May-13 01:30N 34°15' W 119°16'0 0.0
2018-May-13 01:00N 34°15' W 119°16'3 5.8
2018-May-13 00:29N 34°13' W 119°19'918.4
2018-May-13 00:00N 34°07' W 119°27'7 6.9
2018-May-12 23:03N 34°03' W 119°33'0 7.2
2018-May-12 23:00N 34°03' W 119°33'612.9
2018-May-12 22:31N 34°02' W 119°40'1 1.3
2018-May-12 22:00N 34°01' W 119°41'0 0.0
2018-May-12 21:30N 34°01' W 119°41'0 0.0
2018-May-12 21:00N 34°01' W 119°41'0 0.0
2018-May-12 20:30N 34°01' W 119°41'0 0.0
2018-May-12 20:00N 34°01' W 119°41'0 0.0
2018-May-12 19:29N 34°01' W 119°41'1 2.6
2018-May-12 19:00N 34°03' W 119°41'  
Track history (hours):
 
Tides and Currents Weather Stations Pressure Air Temp Water Temp Dewpoint Dewpoint Depression Visibility Wind Speed Wind Dir Waves Ship Positions

Island Explorer

Owner: Island Packers, Inc., Ventura, CA. More information available from US FCC via Universal Licensing System and Coast Guard Vessel Documentation Center.

Last reported at 2018-May-22 19:00 UTC. Time now 2018-May-22 19:06 UTC.
Position N 34°04' W 119°23'.

Length 22 m.

Type: Passenger vessel. MMSI: 367565750.

Date/timePositionNaut miles runAvg speedWind from/ knotsBaromVisibWave heightAir tempDewpointWater temp
2018-May-22 19:00N 34°04' W 119°23'3 5.2
2018-May-22 18:30N 34°01' W 119°22'1 1.7
2018-May-22 18:00N 34°01' W 119°21'2 3.7
2018-May-22 17:30N 34°02' W 119°20'917.4
2018-May-22 16:58N 34°12' W 119°18'3 7.3
2018-May-22 16:30N 34°15' W 119°16'0 0.0
2018-May-22 15:58N 34°15' W 119°16'0 0.0
2018-May-22 15:27N 34°15' W 119°16'0 0.0
2018-May-22 15:00N 34°15' W 119°16'0 0.0
2018-May-22 14:31N 34°15' W 119°16'0 0.0
2018-May-22 14:00N 34°15' W 119°16'0 0.0
2018-May-22 13:27N 34°15' W 119°16'0 0.0
2018-May-22 13:00N 34°15' W 119°16'0 0.0
2018-May-22 12:30N 34°15' W 119°16'0 0.0
2018-May-22 11:59N 34°15' W 119°16'0 0.0
2018-May-22 11:30N 34°15' W 119°16'0 0.0
2018-May-22 11:00N 34°15' W 119°16'0 0.0
2018-May-22 10:30N 34°15' W 119°16'0 0.0
2018-May-22 09:58N 34°15' W 119°16'0 0.0
2018-May-22 09:26N 34°15' W 119°16'0 0.0
2018-May-22 08:56N 34°15' W 119°16'0 0.0
2018-May-22 08:29N 34°15' W 119°16'0 0.0
2018-May-22 08:00N 34°15' W 119°16'0 0.0
2018-May-22 07:30N 34°15' W 119°16'0 0.0
2018-May-22 06:59N 34°15' W 119°16'0 0.0
2018-May-22 06:30N 34°15' W 119°16'0 0.0
2018-May-22 05:56N 34°15' W 119°16'0 0.0
2018-May-22 05:28N 34°15' W 119°16'0 0.0
2018-May-22 05:01N 34°15' W 119°16'0 0.0
2018-May-22 04:27N 34°15' W 119°16'0 0.0
2018-May-22 04:00N 34°15' W 119°16'0 0.0
2018-May-22 03:30N 34°15' W 119°16'0 0.0
2018-May-22 02:55N 34°15' W 119°16'0 0.0
2018-May-22 02:30N 34°15' W 119°16'0 0.0
2018-May-22 01:55N 34°15' W 119°16'0 0.0
2018-May-22 01:29N 34°15' W 119°16'0 0.0
2018-May-22 00:57N 34°15' W 119°16'0 0.0
2018-May-22 00:29N 34°15' W 119°16'0 0.0
2018-May-21 23:59N 34°15' W 119°16'815.8
2018-May-21 23:30N 34°10' W 119°23'1020.6
2018-May-21 23:00N 34°03' W 119°33'1 1.3
2018-May-21 22:30N 34°03' W 119°33'713.3
2018-May-21 22:00N 34°01' W 119°41'0 0.0
2018-May-21 21:30N 34°01' W 119°41'4 6.9
2018-May-21 20:59N 34°03' W 119°37'3 4.9
2018-May-21 20:19N 34°03' W 119°33'619.2
2018-May-21 20:00N 34°07' W 119°27'815.6
2018-May-21 19:29N 34°12' W 119°20'4 0.3
2018-May-21 04:21N 34°15' W 119°16'0 0.0
2018-May-21 02:58N 34°15' W 119°16'0 0.0
2018-May-21 02:21N 34°15' W 119°16'0 0.0
2018-May-21 01:53N 34°15' W 119°16'0 0.0
2018-May-21 01:27N 34°15' W 119°16'0 0.0
2018-May-21 00:59N 34°15' W 119°16'1 1.7
2018-May-21 00:30N 34°14' W 119°17'918.4
2018-May-21 00:00N 34°09' W 119°26'917.6
2018-May-20 23:30N 34°03' W 119°33'0 0.1
2018-May-20 22:52N 34°03' W 119°33'513.7
2018-May-20 22:30N 34°02' W 119°39'2 3.5
2018-May-20 22:00N 34°01' W 119°41'0 0.0
2018-May-20 21:30N 34°01' W 119°41'0 0.0
2018-May-20 21:00N 34°01' W 119°41'0 0.0
2018-May-20 20:30N 34°01' W 119°41'0 0.0
2018-May-20 20:00N 34°01' W 119°41'0 0.0
2018-May-20 19:30N 34°01' W 119°41'0 0.0
2018-May-20 19:00N 34°01' W 119°41'0 0.1
2018-May-20 18:30N 34°01' W 119°41'4 7.6
2018-May-20 18:00N 34°03' W 119°37'3 4.7
2018-May-20 17:24N 34°03' W 119°33'615.5
2018-May-20 17:00N 34°07' W 119°27'917.6
2018-May-20 16:30N 34°12' W 119°19'4 0.6
2018-May-20 10:02N 34°15' W 119°16'0 0.0
2018-May-20 09:54N 34°15' W 119°16'0 0.0
2018-May-20 09:21N 34°15' W 119°16'0 0.0
2018-May-20 08:53N 34°15' W 119°16'0 0.0
2018-May-20 07:36N 34°15' W 119°16'0 0.0
2018-May-20 07:21N 34°15' W 119°16'0 0.0
2018-May-20 06:59N 34°15' W 119°16'0 0.0
2018-May-20 02:07N 34°15' W 119°16'0 0.1
2018-May-20 02:00N 34°15' W 119°16'0 0.0
2018-May-20 00:56N 34°15' W 119°16'0 0.0
2018-May-20 00:15N 34°15' W 119°16'2 8.6
2018-May-19 23:59N 34°14' W 119°18'817.3
2018-May-19 23:30N 34°08' W 119°26'816.1
2018-May-19 23:00N 34°03' W 119°33'0 0.1
2018-May-19 22:07N 34°03' W 119°33'0 0.4
2018-May-19 22:00N 34°03' W 119°33'0 0.0
2018-May-19 21:29N 34°03' W 119°33'0 0.0
2018-May-19 21:00N 34°03' W 119°33'0 0.1
2018-May-19 20:23N 34°03' W 119°33'617.1
2018-May-19 20:00N 34°07' W 119°27'1018.4
2018-May-19 19:29N 34°13' W 119°18'3 2.4
2018-May-19 18:25N 34°15' W 119°16'0 0.2
2018-May-19 18:00N 34°15' W 119°16'816.3
2018-May-19 17:30N 34°10' W 119°24'917.8
2018-May-19 17:00N 34°04' W 119°32'2 2.3
2018-May-19 16:21N 34°03' W 119°33'615.9
2018-May-19 15:58N 34°07' W 119°28'816.6
2018-May-19 15:30N 34°12' W 119°21'5 9.9
2018-May-19 15:00N 34°15' W 119°16'0 0.0
2018-May-19 14:29N 34°15' W 119°16'0 0.0
2018-May-19 13:59N 34°15' W 119°16'0 0.0
2018-May-19 13:29N 34°15' W 119°16'0 0.0
2018-May-19 12:59N 34°15' W 119°16'0 0.0
2018-May-19 12:26N 34°15' W 119°16'0 0.0
2018-May-19 11:55N 34°15' W 119°16'0 0.0
2018-May-19 11:29N 34°15' W 119°16'0 0.0
2018-May-19 10:54N 34°15' W 119°16'0 0.0
2018-May-19 10:17N 34°15' W 119°16'0 0.0
2018-May-19 09:58N 34°15' W 119°16'0 0.0
2018-May-19 09:29N 34°15' W 119°16'0 0.0
2018-May-19 09:00N 34°15' W 119°16'0 0.0
2018-May-19 08:17N 34°15' W 119°16'0 0.0
2018-May-19 07:58N 34°15' W 119°16'0 0.0
2018-May-19 07:28N 34°15' W 119°16'0 0.0
2018-May-19 07:00N 34°15' W 119°16'0 0.0
2018-May-19 06:28N 34°15' W 119°16'0 0.0
2018-May-19 05:59N 34°15' W 119°16'0 0.0
2018-May-19 05:30N 34°15' W 119°16'0 0.0
2018-May-19 04:55N 34°15' W 119°16'0 0.0
2018-May-19 04:28N 34°15' W 119°16'0 0.0
2018-May-19 04:00N 34°15' W 119°16'0 0.0
2018-May-19 03:30N 34°15' W 119°16'0 0.0
2018-May-19 03:00N 34°15' W 119°16'0 0.0
2018-May-19 02:30N 34°15' W 119°16'0 0.0
2018-May-19 01:59N 34°15' W 119°16'0 0.0
2018-May-19 01:30N 34°15' W 119°16'0 0.0
2018-May-19 01:00N 34°15' W 119°16'0 0.7
2018-May-19 00:30N 34°15' W 119°16'918.9
2018-May-19 00:00N 34°09' W 119°25'816.2
2018-May-18 23:30N 34°03' W 119°33'1 1.4
2018-May-18 23:00N 34°03' W 119°34'713.2
2018-May-18 22:30N 34°01' W 119°41'714.7
2018-May-18 22:00N 34°04' W 119°49'612.7
2018-May-18 21:30N 34°04' W 119°57'610.5
2018-May-18 20:54N 34°00' W 120°03'0 0.1
2018-May-18 20:30N 34°00' W 120°03'0 0.0
2018-May-18 20:00N 34°00' W 120°03'0 0.0
2018-May-18 19:28N 34°00' W 120°03'0 0.0
2018-May-18 18:59N 34°00' W 120°03'0 0.0
2018-May-18 18:17N 34°01' W 120°03'618.6
2018-May-18 17:58N 33°58' W 119°56'2117.7
2018-May-18 16:46N 34°02' W 119°31'2 6.6
2018-May-18 16:25N 34°03' W 119°33'716.9
2018-May-18 15:59N 34°07' W 119°26'916.3
2018-May-18 15:26N 34°13' W 119°18'2 3.0
2018-May-18 14:40N 34°15' W 119°16'0 0.1
2018-May-18 14:30N 34°15' W 119°16'0 0.0
2018-May-18 13:58N 34°15' W 119°16'0 0.0
2018-May-18 13:27N 34°15' W 119°16'0 0.0
2018-May-18 12:58N 34°15' W 119°16'0 0.0
2018-May-18 12:21N 34°15' W 119°16'0 0.0
2018-May-18 11:56N 34°15' W 119°16'0 0.0
2018-May-18 11:28N 34°15' W 119°16'0 0.0
2018-May-18 11:00N 34°15' W 119°16'0 0.0
2018-May-18 10:30N 34°15' W 119°16'0 0.0
2018-May-18 09:51N 34°15' W 119°16'0 0.0
2018-May-18 09:30N 34°15' W 119°16'0 0.0
2018-May-18 09:00N 34°15' W 119°16'0 0.0
2018-May-18 08:30N 34°15' W 119°16'0 0.0
2018-May-18 08:00N 34°15' W 119°16'0 0.0
2018-May-18 07:29N 34°15' W 119°16'0 0.0
2018-May-18 07:00N 34°15' W 119°16'0 0.0
2018-May-18 06:29N 34°15' W 119°16'0 0.0
2018-May-18 05:59N 34°15' W 119°16'0 0.0
2018-May-18 05:30N 34°15' W 119°16'0 0.0
2018-May-18 05:00N 34°15' W 119°16'0 0.0
2018-May-18 04:28N 34°15' W 119°16'0 0.0
2018-May-18 04:01N 34°15' W 119°16'0 0.0
2018-May-18 03:30N 34°15' W 119°16'0 0.0
2018-May-18 03:00N 34°15' W 119°16'0 0.0
2018-May-18 02:30N 34°15' W 119°16'0 0.0
2018-May-18 02:00N 34°15' W 119°16'0 0.0
2018-May-18 01:31N 34°15' W 119°16'0 0.0
2018-May-18 01:00N 34°15' W 119°16'0 0.0
2018-May-18 00:30N 34°15' W 119°16'0 0.0
2018-May-18 00:00N 34°15' W 119°16'2 4.1
2018-May-17 23:30N 34°13' W 119°18'917.0
2018-May-17 23:00N 34°05' W 119°18'4 7.9
2018-May-17 22:26N 34°01' W 119°21'0 0.6
2018-May-17 21:57N 34°01' W 119°22'1 3.1
2018-May-17 21:29N 34°01' W 119°20'1 1.2
2018-May-17 21:00N 34°02' W 119°21'0 0.9
2018-May-17 20:30N 34°02' W 119°21'0 0.5
2018-May-17 19:58N 34°02' W 119°22'0 0.4
2018-May-17 19:30N 34°02' W 119°22'0 0.3
2018-May-17 19:00N 34°01' W 119°22'0 0.3
2018-May-17 18:30N 34°01' W 119°22'0 0.3
2018-May-17 18:00N 34°01' W 119°22'3 5.8
2018-May-17 17:30N 34°03' W 119°24'1019.1
2018-May-17 17:00N 34°12' W 119°18'4 3.6
2018-May-17 15:56N 34°15' W 119°16'0 0.0
2018-May-17 06:03N 34°15' W 119°16'0 0.0
2018-May-17 05:56N 34°15' W 119°16'0 0.0
2018-May-17 05:23N 34°15' W 119°16'0 0.0
2018-May-17 04:57N 34°15' W 119°16'0 0.0
2018-May-17 04:29N 34°15' W 119°16'0 0.0
2018-May-17 04:00N 34°15' W 119°16'0 0.0
2018-May-17 03:26N 34°15' W 119°16'0 0.0
2018-May-17 02:57N 34°15' W 119°16'0 0.0
2018-May-17 02:29N 34°15' W 119°16'0 0.0
2018-May-17 01:57N 34°15' W 119°16'0 0.0
2018-May-17 01:28N 34°15' W 119°16'0 0.0
2018-May-17 00:50N 34°15' W 119°16'0 0.0
2018-May-17 00:25N 34°15' W 119°16'1 3.3
2018-May-17 00:00N 34°14' W 119°17'1019.2
2018-May-16 23:30N 34°08' W 119°26'815.1
2018-May-16 23:00N 34°03' W 119°33'3 5.9
2018-May-16 22:30N 34°04' W 119°37'815.2
2018-May-16 22:00N 34°04' W 119°46'613.0
2018-May-16 21:31N 34°05' W 119°54'8 4.5
2018-May-16 19:37N 34°01' W 120°03'0 1.0
2018-May-16 19:21N 34°01' W 120°03'2617.9
2018-May-16 17:53N 34°02' W 119°31'2 5.0
2018-May-16 17:29N 34°03' W 119°33'1019.6
2018-May-16 16:58N 34°10' W 119°24'816.7
2018-May-16 16:29N 34°15' W 119°16'0 0.7
2018-May-16 15:59N 34°15' W 119°16'0 0.0
2018-May-16 15:30N 34°15' W 119°16'0 0.0
2018-May-16 14:51N 34°15' W 119°16'0 0.0
2018-May-16 14:30N 34°15' W 119°16'0 0.0
2018-May-16 13:54N 34°15' W 119°16'0 0.0
2018-May-16 13:22N 34°15' W 119°16'0 0.0
2018-May-16 12:57N 34°15' W 119°16'0 0.0
2018-May-16 12:29N 34°15' W 119°16'0 0.0
2018-May-16 11:59N 34°15' W 119°16'0 0.0
2018-May-16 11:30N 34°15' W 119°16'0 0.0
2018-May-16 11:00N 34°15' W 119°16'0 0.0
2018-May-16 10:30N 34°15' W 119°16'0 0.0
2018-May-16 09:59N 34°15' W 119°16'0 0.0
2018-May-16 09:30N 34°15' W 119°16'0 0.0
2018-May-16 08:59N 34°15' W 119°16'0 0.0
2018-May-16 08:29N 34°15' W 119°16'0 0.0
2018-May-16 08:00N 34°15' W 119°16'0 0.0
2018-May-16 07:30N 34°15' W 119°16'0 0.0
2018-May-16 07:00N 34°15' W 119°16'0 0.0
2018-May-16 06:30N 34°15' W 119°16'0 0.0
2018-May-16 06:00N 34°15' W 119°16'0 0.0
2018-May-16 05:30N 34°15' W 119°16'0 0.0
2018-May-16 05:00N 34°15' W 119°16'0 0.0
2018-May-16 04:30N 34°15' W 119°16'0 0.0
2018-May-16 03:58N 34°15' W 119°16'0 0.0
2018-May-16 03:30N 34°15' W 119°16'0 0.0
2018-May-16 03:00N 34°15' W 119°16'0 0.0
2018-May-16 02:30N 34°15' W 119°16'0 0.0
2018-May-16 02:00N 34°15' W 119°16'0 0.0
2018-May-16 01:30N 34°15' W 119°16'0 0.0
2018-May-16 01:00N 34°15' W 119°16'0 0.0
2018-May-16 00:30N 34°15' W 119°16'0 0.0
2018-May-16 00:00N 34°15' W 119°16'3 5.5
2018-May-15 23:29N 34°13' W 119°19'918.8
2018-May-15 22:59N 34°07' W 119°27'6 9.2
2018-May-15 22:18N 34°03' W 119°33'413.0
2018-May-15 21:59N 34°02' W 119°38'3 5.7
2018-May-15 21:30N 34°01' W 119°41'0 0.1
2018-May-15 21:00N 34°01' W 119°41'1 2.5
2018-May-15 20:30N 34°02' W 119°41'1 2.5
2018-May-15 20:00N 34°01' W 119°41'0 0.0
2018-May-15 19:31N 34°01' W 119°41'0 0.0
2018-May-15 19:00N 34°01' W 119°41'0 0.0
2018-May-15 18:29N 34°01' W 119°41'2 4.5
2018-May-15 18:00N 34°02' W 119°39'5 8.1
2018-May-15 17:27N 34°03' W 119°33'817.8
2018-May-15 16:58N 34°08' W 119°25'714.2
2018-May-15 16:30N 34°13' W 119°19'4 6.9
2018-May-15 15:59N 34°15' W 119°16'0 0.0
2018-May-15 15:30N 34°15' W 119°16'0 0.0
2018-May-15 15:00N 34°15' W 119°16'0 0.0
2018-May-15 14:31N 34°15' W 119°16'0 0.0
2018-May-15 13:59N 34°15' W 119°16'0 0.0
2018-May-15 13:30N 34°15' W 119°16'0 0.0
2018-May-15 13:00N 34°15' W 119°16'0 0.0
2018-May-15 12:31N 34°15' W 119°16'0 0.0
2018-May-15 12:00N 34°15' W 119°16'0 0.0
2018-May-15 11:31N 34°15' W 119°16'0 0.0
2018-May-15 11:00N 34°15' W 119°16'0 0.0
2018-May-15 10:30N 34°15' W 119°16'0 0.0
2018-May-15 09:59N 34°15' W 119°16'0 0.0
2018-May-15 09:30N 34°15' W 119°16'0 0.0
2018-May-15 08:57N 34°15' W 119°16'0 0.0
2018-May-15 08:24N 34°15' W 119°16'0 0.0
2018-May-15 07:59N 34°15' W 119°16'0 0.0
2018-May-15 07:28N 34°15' W 119°16'0 0.0
2018-May-15 07:00N 34°15' W 119°16'0 0.0
2018-May-15 06:31N 34°15' W 119°16'0 0.0
2018-May-15 06:01N 34°15' W 119°16'0 0.0
2018-May-15 05:29N 34°15' W 119°16'0 0.0
2018-May-15 04:59N 34°15' W 119°16'0 0.0
2018-May-15 04:30N 34°15' W 119°16'0 0.0
2018-May-15 04:00N 34°15' W 119°16'0 0.0
2018-May-15 03:28N 34°15' W 119°16'0 0.0
2018-May-15 02:55N 34°15' W 119°16'0 0.0
2018-May-15 02:30N 34°15' W 119°16'0 0.0
2018-May-15 02:00N 34°15' W 119°16'0 0.0
2018-May-15 01:31N 34°15' W 119°16'0 0.0
2018-May-15 01:00N 34°15' W 119°16'0 0.0
2018-May-15 00:29N 34°15' W 119°16'510.9
2018-May-15 00:00N 34°11' W 119°21'918.0
2018-May-14 23:30N 34°06' W 119°29'4 8.7
2018-May-14 23:00N 34°03' W 119°33'0 0.0
2018-May-14 22:30N 34°03' W 119°33'0 0.1
2018-May-14 22:00N 34°03' W 119°33'0 0.0
2018-May-14 21:30N 34°03' W 119°33'0 0.0
2018-May-14 21:00N 34°03' W 119°33'0 0.0
2018-May-14 20:30N 34°03' W 119°33'0 0.0
2018-May-14 20:00N 34°03' W 119°33'0 0.0
2018-May-14 19:30N 34°03' W 119°33'0 0.0
2018-May-14 19:00N 34°03' W 119°33'0 0.0
2018-May-14 18:30N 34°03' W 119°33'0 0.0
2018-May-14 17:58N 34°03' W 119°33'0 0.1
2018-May-14 17:25N 34°03' W 119°33'816.6
2018-May-14 16:57N 34°08' W 119°26'818.1
2018-May-14 16:30N 34°13' W 119°19'3 5.5
2018-May-14 16:00N 34°15' W 119°16'0 0.0
2018-May-14 15:30N 34°15' W 119°16'0 0.0
2018-May-14 15:00N 34°15' W 119°16'0 0.0
2018-May-14 14:30N 34°15' W 119°16'0 0.0
2018-May-14 14:00N 34°15' W 119°16'0 0.0
2018-May-14 13:30N 34°15' W 119°16'0 0.0
2018-May-14 12:59N 34°15' W 119°16'0 0.0
2018-May-14 12:25N 34°15' W 119°16'0 0.0
2018-May-14 12:00N 34°15' W 119°16'0 0.0
2018-May-14 11:27N 34°15' W 119°16'0 0.0
2018-May-14 11:00N 34°15' W 119°16'0 0.0
2018-May-14 10:30N 34°15' W 119°16'0 0.0
2018-May-14 10:00N 34°15' W 119°16'0 0.0
2018-May-14 09:29N 34°15' W 119°16'0 0.0
2018-May-14 09:00N 34°15' W 119°16'0 0.0
2018-May-14 08:30N 34°15' W 119°16'0 0.0
2018-May-14 08:00N 34°15' W 119°16'0 0.0
2018-May-14 07:30N 34°15' W 119°16'0 0.0
2018-May-14 06:59N 34°15' W 119°16'0 0.0
2018-May-14 06:29N 34°15' W 119°16'0 0.0
2018-May-14 05:58N 34°15' W 119°16'0 0.0
2018-May-14 05:27N 34°15' W 119°16'0 0.0
2018-May-14 04:58N 34°15' W 119°16'0 0.0
2018-May-14 04:30N 34°15' W 119°16'0 0.0
2018-May-14 03:59N 34°15' W 119°16'0 0.0
2018-May-14 03:30N 34°15' W 119°16'0 0.0
2018-May-14 02:59N 34°15' W 119°16'0 0.0
2018-May-14 02:30N 34°15' W 119°16'0 0.0
2018-May-14 02:00N 34°15' W 119°16'0 0.0
2018-May-14 01:28N 34°15' W 119°16'0 0.0
2018-May-14 01:00N 34°15' W 119°16'712.3
2018-May-14 00:28N 34°11' W 119°22'919.1
2018-May-14 00:00N 34°05' W 119°31'3 3.4
2018-May-13 23:06N 34°03' W 119°33'0 0.1
2018-May-13 23:00N 34°03' W 119°33'0 0.0
2018-May-13 22:30N 34°03' W 119°33'510.8
2018-May-13 22:00N 34°02' W 119°40'1 2.6
2018-May-13 21:30N 34°01' W 119°41'0 0.0
2018-May-13 21:00N 34°01' W 119°41'0 0.0
2018-May-13 20:30N 34°01' W 119°41'0 0.0
2018-May-13 20:00N 34°01' W 119°41'0 0.0
2018-May-13 19:30N 34°01' W 119°41'0 0.0
2018-May-13 19:00N 34°01' W 119°41'0 0.0
2018-May-13 18:30N 34°01' W 119°41'2 3.7
2018-May-13 18:00N 34°02' W 119°39'5 9.5
2018-May-13 17:29N 34°03' W 119°33'713.9
2018-May-13 17:00N 34°07' W 119°27'918.2
2018-May-13 16:30N 34°13' W 119°19'3 3.3
2018-May-13 15:41N 34°15' W 119°16'0 0.0
2018-May-13 15:30N 34°15' W 119°16'0 0.0
2018-May-13 14:59N 34°15' W 119°16'0 0.0
2018-May-13 14:30N 34°15' W 119°16'0 0.0
2018-May-13 13:57N 34°15' W 119°16'0 0.0
2018-May-13 13:27N 34°15' W 119°16'0 0.0
2018-May-13 12:58N 34°15' W 119°16'0 0.0
2018-May-13 12:28N 34°15' W 119°16'0 0.0
2018-May-13 12:00N 34°15' W 119°16'0 0.0
2018-May-13 11:30N 34°15' W 119°16'0 0.0
2018-May-13 10:59N 34°15' W 119°16'0 0.0
2018-May-13 10:30N 34°15' W 119°16'0 0.0
2018-May-13 10:00N 34°15' W 119°16'0 0.0
2018-May-13 09:30N 34°15' W 119°16'0 0.0
2018-May-13 08:57N 34°15' W 119°16'0 0.0
2018-May-13 08:28N 34°15' W 119°16'0 0.0
2018-May-13 07:59N 34°15' W 119°16'0 0.0
2018-May-13 07:30N 34°15' W 119°16'0 0.0
2018-May-13 06:53N 34°15' W 119°16'0 0.0
2018-May-13 06:30N 34°15' W 119°16'0 0.0
2018-May-13 05:58N 34°15' W 119°16'0 0.0
2018-May-13 05:30N 34°15' W 119°16'0 0.0
2018-May-13 04:59N 34°15' W 119°16'0 0.0
2018-May-13 04:30N 34°15' W 119°16'0 0.0
2018-May-13 04:00N 34°15' W 119°16'0 0.0
2018-May-13 03:30N 34°15' W 119°16'0 0.0
2018-May-13 02:59N 34°15' W 119°16'0 0.0
2018-May-13 02:30N 34°15' W 119°16'0 0.0
2018-May-13 02:00N 34°15' W 119°16'0 0.0
2018-May-13 01:30N 34°15' W 119°16'0 0.0
2018-May-13 01:00N 34°15' W 119°16'3 5.8
2018-May-13 00:29N 34°13' W 119°19'918.4
2018-May-13 00:00N 34°07' W 119°27'7 6.9
2018-May-12 23:03N 34°03' W 119°33'0 7.2
2018-May-12 23:00N 34°03' W 119°33'612.9
2018-May-12 22:31N 34°02' W 119°40'1 1.3
2018-May-12 22:00N 34°01' W 119°41'0 0.0
2018-May-12 21:30N 34°01' W 119°41'0 0.0
2018-May-12 21:00N 34°01' W 119°41'0 0.0
2018-May-12 20:30N 34°01' W 119°41'0 0.0
2018-May-12 20:00N 34°01' W 119°41'0 0.0
2018-May-12 19:29N 34°01' W 119°41'1 2.6
2018-May-12 19:00N 34°03' W 119°41'  

Dump ship's entire track history